KDAY

James M Cox Dayton International Airport

Dayton, Ohio, USA
METAR KDAY 210356Z 26011KT 10SM -RA SCT030 SCT060 OVC110 22/21 A2991 RMK AO2 LTG DSNT N RAB23 CIG 026 RWY 6L SLP121 P0002 T02220211 $
Observed Flight Rules
Aug-21 @ 03:56 UTC (16 minutes ago) Visual Flight Rules
Wind Visibility Clouds Conditions
260° at 11 knots 10 miles
  • Scattered at 3,000' AGL
  • Scattered at 6,000' AGL
  • Overcast at 11,000' AGL
  • Light Rain
Temperatures Readings Precipitation
Current 22°C / 72°F
Dewpoint 21°C / 70°F
Humidity 94%
Altimeter 29.91" Hg
Pressure 1012.1 hPa
Elevation 305
Current Rain 0.02
METAR KDAY 210356Z 26011KT 10SM -RA SCT030 SCT060 OVC110 22/21 A2991 RMK AO2 LTG DSNT N RAB23 CIG 026 RWY 6L SLP121 P0002 T02220211 $
Observed Flight Rules
Aug-21 @ 03:56 UTC
(16 minutes ago)
VFR
Wind Visibility
260° at 11 knots 10 miles
Clouds
  • Scattered at 3,000' AGL
  • Scattered at 6,000' AGL
  • Overcast at 11,000' AGL
Conditions
  • Light Rain
Temperature Dewpoint
22°C / 72°F 21°C / 70°F
Humidity Altimeter Pressure
94% 29.91" Hg 1012.1 hPa
Current Rain
0.02